Time;durP1;ratioP1;P1;durP2;ratioP2;P2;SDS_P1;SDS_P2;PMS_P1;PMS_P2;Temp;Humidity;BMP_temperature;BMP_pressure;BME280_temperature;BME280_humidity;BME280_pressure;Samples;Min_cycle;Max_cycle;Signal;HPM_P1;HPM_P2
2021/08/02 00:01:40;;;;;;;9.88;4.10;;;691.20;1868.80;;;;;;4937466;29;20015;-80
2021/08/02 00:04:09;;;;;;;11.00;3.90;;;691.20;1894.40;;;;;;4937372;29;20028;-80
2021/08/02 00:06:53;;;;;;;7.45;3.80;;;691.40;1868.80;;;;;;4937146;29;20586;-79
2021/08/02 00:09:32;;;;;;;9.45;3.88;;;691.20;1894.40;;;;;;4937106;29;20027;-80
2021/08/02 00:12:02;;;;;;;14.00;4.07;;;666.20;1920.00;;;;;;4937057;29;20544;-81
2021/08/02 00:14:31;;;;;;;9.35;4.28;;;666.30;1920.00;;;;;;4937055;29;20489;-80
2021/08/02 00:16:57;;;;;;;8.07;3.70;;;666.10;1945.60;;;;;;4937128;29;20477;-84
2021/08/02 00:19:24;;;;;;;7.82;4.10;;;666.20;1945.60;;;;;;4936710;29;20059;-79
2021/08/02 00:21:50;;;;;;;11.27;3.67;;;666.20;1945.60;;;;;;4937110;29;20027;-80
2021/08/02 00:24:19;;;;;;;8.60;3.83;;;691.30;1920.00;;;;;;4936986;28;20027;-79
2021/08/02 00:26:45;;;;;;;11.07;4.32;;;666.20;1945.60;;;;;;4956977;29;20105;-80
2021/08/02 00:29:14;;;;;;;9.25;4.53;;;666.20;1945.60;;;;;;4940668;29;20015;-80
2021/08/02 00:31:40;;;;;;;11.77;4.88;;;666.50;1920.00;;;;;;4941050;29;20031;-79
2021/08/02 00:34:06;;;;;;;16.77;6.47;;;666.50;1920.00;;;;;;4957969;29;20396;-79
2021/08/02 00:36:45;;;;;;;21.83;10.27;;;691.20;1920.00;;;;;;4957888;29;20078;-80
2021/08/02 00:39:18;;;;;;;29.77;12.13;;;666.50;1920.00;;;;;;4938608;29;20115;-79
2021/08/02 00:42:17;;;;;;;25.02;11.90;;;666.50;1920.00;;;;;;4940313;29;20114;-79
2021/08/02 00:45:01;;;;;;;20.08;10.25;;;691.20;1920.00;;;;;;4957510;29;20031;-79
2021/08/02 00:47:33;;;;;;;22.83;9.60;;;666.50;1920.00;;;;;;4956321;28;20050;-79
2021/08/02 00:50:08;;;;;;;20.63;8.95;;;666.50;1920.00;;;;;;4940521;29;20032;-82
2021/08/02 00:52:34;;;;;;;10.80;5.80;;;666.50;1945.60;;;;;;4939885;29;20035;-79
2021/08/02 00:55:03;;;;;;;13.45;5.00;;;666.20;1971.20;;;;;;4940099;29;20066;-80
2021/08/02 00:57:33;;;;;;;13.85;4.80;;;666.20;1971.20;;;;;;4940368;29;20039;-79
2021/08/02 01:00:13;;;;;;;8.02;4.97;;;666.30;1971.20;;;;;;4957448;29;20099;-80
2021/08/02 01:02:41;;;;;;;11.43;4.93;;;666.20;1996.80;;;;;;4957419;29;20039;-78
2021/08/02 01:05:10;;;;;;;8.10;4.57;;;665.70;2022.40;;;;;;4939904;29;20078;-80
2021/08/02 01:08:05;;;;;;;9.40;5.30;;;640.90;2048.00;;;;;;4939844;29;20367;-80
2021/08/02 01:10:35;;;;;;;10.93;5.43;;;640.70;2073.60;;;;;;4882235;29;20076;-83
2021/08/02 01:13:05;;;;;;;10.52;5.65;;;640.70;2073.60;;;;;;4879975;29;20029;-80
2021/08/02 01:15:32;;;;;;;11.30;6.10;;;640.70;2073.60;;;;;;4897915;29;20120;-79
2021/08/02 01:17:59;;;;;;;9.15;5.90;;;640.70;2099.20;;;;;;4875150;29;20040;-84
2021/08/02 01:20:30;;;;;;;13.00;6.05;;;640.60;2099.20;;;;;;4863578;29;20089;-80
2021/08/02 01:22:56;;;;;;;10.35;6.57;;;640.70;2099.20;;;;;;4863348;29;20033;-84
2021/08/02 01:25:34;;;;;;;11.65;6.28;;;640.60;2124.80;;;;;;4878935;29;20124;-80
2021/08/02 01:28:14;;;;;;;12.02;5.13;;;640.60;2124.80;;;;;;4878995;29;20040;-81
2021/08/02 01:30:46;;;;;;;10.20;5.57;;;640.50;2124.80;;;;;;4879164;29;20112;-82
2021/08/02 01:33:12;;;;;;;10.13;5.95;;;640.50;2150.40;;;;;;4878663;29;20271;-80
2021/08/02 01:35:39;;;;;;;11.43;5.57;;;640.40;2150.40;;;;;;4878740;29;20599;-80
2021/08/02 01:38:06;;;;;;;8.50;5.95;;;640.50;2150.40;;;;;;4862960;29;20043;-81
2021/08/02 01:40:32;;;;;;;12.75;6.82;;;640.50;2150.40;;;;;;4863145;29;20037;-81
2021/08/02 01:43:03;;;;;;;11.13;5.50;;;640.40;2150.40;;;;;;4878935;29;20029;-81
2021/08/02 01:45:30;;;;;;;8.40;5.00;;;640.60;2150.40;;;;;;4863209;29;20037;-81
2021/08/02 01:48:07;;;;;;;15.73;5.70;;;640.50;2150.40;;;;;;4919833;28;20482;-81
2021/08/02 01:50:41;;;;;;;13.88;5.68;;;640.50;2150.40;;;;;;4938936;29;20039;-79
2021/08/02 01:53:30;;;;;;;7.40;5.38;;;640.60;2150.40;;;;;;4953314;29;20062;-80
2021/08/02 01:56:20;;;;;;;10.63;6.00;;;640.70;2150.40;;;;;;4938476;29;20027;-83
2021/08/02 01:59:05;;;;;;;7.65;4.88;;;640.60;2150.40;;;;;;4953165;29;20038;-79
2021/08/02 02:01:34;;;;;;;10.15;6.70;;;640.60;2176.00;;;;;;4939036;29;20028;-80
2021/08/02 02:04:02;;;;;;;12.23;6.93;;;640.20;2201.60;;;;;;4956029;29;20030;-81
2021/08/02 02:06:36;;;;;;;12.40;6.95;;;640.20;2201.60;;;;;;4938991;29;20027;-80
2021/08/02 02:09:05;;;;;;;14.35;8.52;;;640.20;2201.60;;;;;;4938931;29;20038;-83
2021/08/02 02:11:32;;;;;;;8.85;6.13;;;640.40;2176.00;;;;;;4955766;29;20106;-82
2021/08/02 02:14:06;;;;;;;8.93;4.88;;;640.40;2176.00;;;;;;4938691;29;20031;-81
2021/08/02 02:16:32;;;;;;;7.35;4.97;;;640.50;2176.00;;;;;;4938549;29;20035;-81
2021/08/02 02:19:03;;;;;;;22.88;5.57;;;640.00;2227.20;;;;;;4937164;29;20035;-79
2021/08/02 02:21:31;;;;;;;13.13;5.10;;;640.00;2252.80;;;;;;4938609;29;20119;-80
2021/08/02 02:23:58;;;;;;;9.00;5.03;;;615.20;2278.40;;;;;;4938588;29;20564;-79
2021/08/02 02:26:27;;;;;;;9.82;4.78;;;615.20;2252.80;;;;;;4938770;29;20508;-79
2021/08/02 02:28:54;;;;;;;15.25;5.55;;;615.20;2252.80;;;;;;4938619;29;20021;-80
2021/08/02 02:31:21;;;;;;;12.30;5.85;;;615.00;2278.40;;;;;;4938440;29;20111;-80
2021/08/02 02:33:48;;;;;;;10.88;6.65;;;614.90;2304.00;;;;;;4955628;29;20114;-81
2021/08/02 02:36:15;;;;;;;11.05;7.68;;;614.70;2329.60;;;;;;4938340;29;20023;-80
2021/08/02 02:38:42;;;;;;;11.80;8.02;;;614.60;2329.60;;;;;;4938168;29;20054;-81
2021/08/02 02:41:07;;;;;;;11.73;7.50;;;614.70;2304.00;;;;;;4938286;29;20027;-80
2021/08/02 02:43:34;;;;;;;8.23;6.32;;;614.60;2329.60;;;;;;4938354;29;20019;-84
2021/08/02 02:46:00;;;;;;;10.35;5.78;;;614.60;2329.60;;;;;;4938332;29;20110;-82
2021/08/02 02:48:26;;;;;;;14.55;5.20;;;614.70;2329.60;;;;;;4954807;28;20478;-81
2021/08/02 02:50:53;;;;;;;8.23;4.88;;;614.80;2304.00;;;;;;4938140;29;20089;-79
2021/08/02 02:53:19;;;;;;;8.70;5.35;;;614.90;2304.00;;;;;;4937815;29;20035;-80
2021/08/02 02:55:47;;;;;;;9.65;5.70;;;615.00;2304.00;;;;;;4938441;29;20027;-81
2021/08/02 02:58:13;;;;;;;10.07;5.22;;;614.60;2355.20;;;;;;4938169;29;20473;-80
2021/08/02 03:00:39;;;;;;;6.85;4.68;;;614.60;2355.20;;;;;;4938379;29;20042;-81
2021/08/02 03:03:08;;;;;;;7.57;5.07;;;589.70;2380.80;;;;;;4938145;29;20062;-81
2021/08/02 03:05:37;;;;;;;7.53;5.22;;;614.40;2380.80;;;;;;4940737;29;20058;-79
2021/08/02 03:08:06;;;;;;;13.10;5.90;;;614.40;2355.20;;;;;;4939261;29;20023;-81
2021/08/02 03:10:33;;;;;;;8.98;4.93;;;589.70;2380.80;;;;;;4938397;29;20031;-80
2021/08/02 03:13:00;;;;;;;10.98;5.60;;;614.40;2380.80;;;;;;4937747;29;20046;-80
2021/08/02 03:15:25;;;;;;;7.55;5.00;;;614.60;2355.20;;;;;;4937601;29;20027;-83
2021/08/02 03:17:51;;;;;;;9.27;5.57;;;589.70;2406.40;;;;;;4937786;29;20556;-81
2021/08/02 03:20:18;;;;;;;7.93;5.68;;;589.40;2432.00;;;;;;4937391;29;20050;-81
2021/08/02 03:22:51;;;;;;;8.00;6.22;;;589.40;2432.00;;;;;;4937667;29;20518;-81
2021/08/02 03:25:40;;;;;;;9.35;6.03;;;589.40;2432.00;;;;;;4954819;29;20082;-81
2021/08/02 03:28:15;;;;;;;12.05;6.20;;;589.20;2432.00;;;;;;4937819;29;20054;-80
2021/08/02 03:30:43;;;;;;;12.77;6.65;;;589.10;2432.00;;;;;;4937936;29;20477;-81
2021/08/02 03:33:24;;;;;;;10.18;6.18;;;589.20;2432.00;;;;;;4937597;29;20474;-81
2021/08/02 03:35:52;;;;;;;8.00;6.25;;;589.50;2432.00;;;;;;4937617;29;20023;-80
2021/08/02 03:38:20;;;;;;;9.45;6.75;;;614.40;2406.40;;;;;;4937357;29;20026;-81
2021/08/02 03:40:47;;;;;;;10.68;6.40;;;614.50;2380.80;;;;;;4937174;29;20030;-80
2021/08/02 03:43:14;;;;;;;11.65;6.35;;;589.50;2406.40;;;;;;4937568;29;20657;-81
2021/08/02 03:45:42;;;;;;;9.55;6.97;;;589.70;2406.40;;;;;;4937722;29;20054;-80
2021/08/02 03:48:09;;;;;;;9.88;6.35;;;589.40;2432.00;;;;;;4937203;29;20031;-83
2021/08/02 03:50:36;;;;;;;8.75;6.00;;;589.30;2432.00;;;;;;4937391;29;20516;-84
2021/08/02 03:53:02;;;;;;;7.88;5.38;;;589.20;2432.00;;;;;;4937230;29;20035;-80
2021/08/02 03:55:30;;;;;;;8.90;5.50;;;589.10;2432.00;;;;;;4954588;29;20034;-83
2021/08/02 03:57:56;;;;;;;7.00;5.05;;;589.30;2380.80;;;;;;4937170;29;20074;-81
2021/08/02 04:00:23;;;;;;;10.18;4.20;;;589.00;2380.80;;;;;;4955263;28;20105;-81
2021/08/02 04:02:49;;;;;;;6.07;4.55;;;589.00;2380.80;;;;;;4941213;29;20039;-80
2021/08/02 04:05:18;;;;;;;6.72;4.28;;;588.90;2380.80;;;;;;4941210;29;20107;-83
2021/08/02 04:07:44;;;;;;;6.25;3.72;;;589.00;2380.80;;;;;;4941148;29;20023;-81
2021/08/02 04:10:11;;;;;;;6.88;4.20;;;588.80;2355.20;;;;;;4941163;29;20121;-83
2021/08/02 04:12:37;;;;;;;7.93;4.60;;;564.10;2355.20;;;;;;4941001;29;20039;-81
2021/08/02 04:15:04;;;;;;;6.43;4.13;;;564.10;2355.20;;;;;;4940958;29;20039;-83
2021/08/02 04:17:30;;;;;;;7.80;3.83;;;564.00;2380.80;;;;;;4941164;29;20043;-85
2021/08/02 04:19:56;;;;;;;16.60;4.38;;;563.70;2406.40;;;;;;4941235;29;20038;-81
2021/08/02 04:22:21;;;;;;;6.95;4.85;;;563.60;2432.00;;;;;;4940888;29;20110;-81
2021/08/02 04:24:47;;;;;;;6.72;4.25;;;563.60;2432.00;;;;;;4940428;29;20126;-82
2021/08/02 04:27:13;;;;;;;7.70;4.72;;;563.80;2406.40;;;;;;4941055;29;20500;-81
2021/08/02 04:29:38;;;;;;;7.15;4.90;;;563.90;2380.80;;;;;;4940620;29;20118;-85
2021/08/02 04:32:05;;;;;;;9.23;4.90;;;564.00;2355.20;;;;;;4938689;29;20055;-82
2021/08/02 04:34:30;;;;;;;6.22;4.82;;;588.90;2329.60;;;;;;4940270;29;20043;-82
2021/08/02 04:36:56;;;;;;;16.63;4.80;;;589.00;2304.00;;;;;;4941210;29;20438;-84
2021/08/02 04:39:22;;;;;;;11.77;4.47;;;588.90;2304.00;;;;;;4940628;29;20035;-81
2021/08/02 04:41:48;;;;;;;9.00;3.75;;;588.90;2304.00;;;;;;4940825;29;20106;-80
2021/08/02 04:44:14;;;;;;;7.55;5.13;;;589.00;2304.00;;;;;;4941027;29;20561;-83
2021/08/02 04:46:40;;;;;;;7.45;4.30;;;588.90;2304.00;;;;;;4940233;29;20102;-81
2021/08/02 04:49:06;;;;;;;8.00;4.85;;;588.90;2329.60;;;;;;4939680;29;20122;-81
2021/08/02 04:51:31;;;;;;;12.30;9.13;;;589.10;2304.00;;;;;;4940271;29;20120;-80
2021/08/02 04:53:57;;;;;;;8.25;5.32;;;589.30;2278.40;;;;;;4940007;29;20039;-80
2021/08/02 04:56:23;;;;;;;10.20;7.35;;;589.20;2278.40;;;;;;4957332;29;20027;-78
2021/08/02 04:58:48;;;;;;;9.75;5.43;;;589.30;2252.80;;;;;;4957311;29;20027;-78
2021/08/02 05:01:14;;;;;;;8.60;5.50;;;589.00;2278.40;;;;;;4939692;29;20106;-79
2021/08/02 05:03:40;;;;;;;8.88;5.22;;;588.80;2304.00;;;;;;4939860;29;20020;-79
2021/08/02 05:06:06;;;;;;;9.38;6.65;;;589.00;2278.40;;;;;;4957106;29;20508;-78
2021/08/02 05:08:31;;;;;;;8.85;5.13;;;588.90;2278.40;;;;;;4957021;29;20027;-78
2021/08/02 05:10:57;;;;;;;9.95;4.40;;;564.10;2304.00;;;;;;4939589;29;20027;-78
2021/08/02 05:13:23;;;;;;;6.35;4.25;;;564.00;2304.00;;;;;;4939631;29;20398;-78
2021/08/02 05:15:49;;;;;;;6.85;4.70;;;563.90;2304.00;;;;;;4957131;28;20470;-78
2021/08/02 05:18:15;;;;;;;6.65;4.32;;;563.90;2304.00;;;;;;4942173;29;20043;-78
2021/08/02 05:20:42;;;;;;;6.30;4.30;;;564.00;2329.60;;;;;;4955348;28;20031;-78
2021/08/02 05:23:08;;;;;;;11.65;5.30;;;564.10;2304.00;;;;;;4956846;29;20480;-78
2021/08/02 05:25:34;;;;;;;5.93;4.20;;;588.90;2252.80;;;;;;4956690;29;20034;-79
2021/08/02 05:28:00;;;;;;;8.73;5.20;;;588.90;2252.80;;;;;;4956797;29;20023;-79
2021/08/02 05:30:26;;;;;;;9.88;5.20;;;589.10;2278.40;;;;;;4947758;28;20023;-81
2021/08/02 05:32:52;;;;;;;9.15;5.13;;;564.00;2278.40;;;;;;4952099;28;20023;-79
2021/08/02 05:35:18;;;;;;;11.02;5.07;;;564.00;2329.60;;;;;;4951435;28;20097;-78
2021/08/02 05:37:44;;;;;;;8.80;5.22;;;563.90;2355.20;;;;;;4956282;28;20031;-79
2021/08/02 05:40:10;;;;;;;13.25;6.43;;;563.80;2406.40;;;;;;4954154;28;20544;-81
2021/08/02 05:42:36;;;;;;;15.05;7.70;;;563.60;2432.00;;;;;;4958713;28;20031;-79
2021/08/02 05:45:04;;;;;;;15.70;11.95;;;563.40;2432.00;;;;;;4976145;28;20031;-78
2021/08/02 05:47:30;;;;;;;9.25;7.60;;;563.30;2432.00;;;;;;4958395;28;20027;-78
2021/08/02 05:49:55;;;;;;;13.75;8.88;;;563.30;2432.00;;;;;;4954731;28;20527;-79
2021/08/02 05:52:21;;;;;;;12.63;8.25;;;563.20;2432.00;;;;;;4939197;29;20045;-79
2021/08/02 05:54:47;;;;;;;11.65;6.10;;;563.40;2432.00;;;;;;4954997;28;20063;-79
2021/08/02 05:57:17;;;;;;;9.00;5.88;;;563.30;2432.00;;;;;;4956316;28;20020;-78
2021/08/02 05:59:43;;;;;;;7.22;5.00;;;563.30;2432.00;;;;;;4946460;28;20062;-78
2021/08/02 06:02:09;;;;;;;10.10;5.22;;;563.20;2432.00;;;;;;4956321;28;20460;-79
2021/08/02 06:04:35;;;;;;;7.55;4.85;;;563.60;2432.00;;;;;;4946446;29;20023;-80
2021/08/02 06:07:00;;;;;;;8.63;4.63;;;563.80;2432.00;;;;;;4931531;29;20031;-78
2021/08/02 06:09:26;;;;;;;8.15;4.97;;;563.60;2432.00;;;;;;4954996;28;20130;-78
2021/08/02 06:11:52;;;;;;;8.73;4.85;;;563.50;2432.00;;;;;;4938707;29;20042;-76
2021/08/02 06:14:17;;;;;;;5.97;3.88;;;563.70;2432.00;;;;;;4955815;29;20039;-78
2021/08/02 06:16:43;;;;;;;7.28;4.32;;;563.80;2432.00;;;;;;4955828;29;20016;-77
2021/08/02 06:19:09;;;;;;;6.63;4.00;;;563.90;2406.40;;;;;;4955665;28;20043;-79
2021/08/02 06:21:35;;;;;;;5.10;3.72;;;563.70;2406.40;;;;;;4938420;29;20031;-79
2021/08/02 06:24:01;;;;;;;5.15;4.10;;;564.00;2380.80;;;;;;4937161;29;20039;-79
2021/08/02 06:26:26;;;;;;;6.28;3.67;;;588.90;2380.80;;;;;;4938386;29;20028;-80
2021/08/02 06:28:52;;;;;;;11.27;3.60;;;589.20;2329.60;;;;;;4938412;29;20050;-78
2021/08/02 06:31:19;;;;;;;7.25;3.90;;;589.00;2304.00;;;;;;4938856;28;20035;-77
2021/08/02 06:33:44;;;;;;;8.35;2.70;;;588.90;2304.00;;;;;;4955816;28;20094;-77
2021/08/02 06:36:10;;;;;;;4.93;3.15;;;564.10;2304.00;;;;;;4938341;28;20031;-81
2021/08/02 06:38:36;;;;;;;6.15;3.20;;;563.90;2329.60;;;;;;4950519;29;20489;-79
2021/08/02 06:41:03;;;;;;;7.78;3.85;;;564.00;2304.00;;;;;;4955619;28;20030;-79
2021/08/02 06:43:29;;;;;;;4.70;3.25;;;588.80;2278.40;;;;;;4955718;28;20020;-79
2021/08/02 06:45:55;;;;;;;5.22;3.72;;;588.80;2278.40;;;;;;4954112;29;20086;-79
2021/08/02 06:48:21;;;;;;;7.20;3.75;;;589.10;2252.80;;;;;;4955880;28;20027;-81
2021/08/02 06:50:48;;;;;;;6.05;3.45;;;588.90;2252.80;;;;;;4954127;29;20509;-77
2021/08/02 06:53:13;;;;;;;9.10;3.63;;;588.80;2227.20;;;;;;4955371;28;20100;-78
2021/08/02 06:55:39;;;;;;;4.95;3.00;;;588.90;2227.20;;;;;;4953916;29;20106;-80
2021/08/02 06:58:05;;;;;;;7.32;2.85;;;588.90;2227.20;;;;;;4955440;28;20105;-77
2021/08/02 07:00:31;;;;;;;7.68;3.17;;;588.90;2252.80;;;;;;4955316;28;20027;-78
2021/08/02 07:02:58;;;;;;;6.28;3.35;;;588.90;2252.80;;;;;;4955270;28;20378;-80
2021/08/02 07:05:24;;;;;;;5.35;3.13;;;589.10;2227.20;;;;;;4953858;29;20031;-77
2021/08/02 07:07:50;;;;;;;6.85;3.17;;;589.20;2252.80;;;;;;4938806;28;20027;-79
2021/08/02 07:10:16;;;;;;;5.75;3.30;;;589.20;2252.80;;;;;;4945498;29;20035;-79
2021/08/02 07:12:42;;;;;;;7.63;4.28;;;589.30;2278.40;;;;;;4955120;28;20023;-80
2021/08/02 07:15:08;;;;;;;7.93;3.83;;;589.30;2227.20;;;;;;4955253;28;20031;-78
2021/08/02 07:17:34;;;;;;;5.82;3.08;;;589.40;2227.20;;;;;;4953545;28;20043;-78
2021/08/02 07:20:00;;;;;;;12.35;4.30;;;589.70;2201.60;;;;;;4955148;29;20508;-79
2021/08/02 07:22:25;;;;;;;6.43;3.78;;;589.70;2176.00;;;;;;4953718;29;20038;-79
2021/08/02 07:24:52;;;;;;;6.63;4.28;;;614.50;2124.80;;;;;;4954633;28;20051;-80
2021/08/02 07:27:18;;;;;;;10.65;4.07;;;614.40;2176.00;;;;;;4952745;29;20039;-80
2021/08/02 07:29:44;;;;;;;6.50;3.65;;;614.40;2124.80;;;;;;4954602;29;20030;-78
2021/08/02 07:32:09;;;;;;;8.73;3.40;;;614.50;2124.80;;;;;;4937046;29;20409;-78
2021/08/02 07:34:35;;;;;;;5.28;3.03;;;589.70;2150.40;;;;;;4954173;28;20039;-78
2021/08/02 07:37:01;;;;;;;6.63;3.40;;;614.50;2124.80;;;;;;4954205;29;20414;-77
2021/08/02 07:39:28;;;;;;;5.30;2.90;;;614.60;2124.80;;;;;;4954461;29;20023;-77
2021/08/02 07:41:54;;;;;;;5.38;2.55;;;614.80;2073.60;;;;;;4937166;29;20068;-77
2021/08/02 07:44:19;;;;;;;3.78;2.42;;;614.80;2048.00;;;;;;4937307;29;20445;-77
2021/08/02 07:46:45;;;;;;;7.43;2.88;;;614.90;2048.00;;;;;;4937167;29;20019;-80
2021/08/02 07:49:11;;;;;;;4.47;2.50;;;615.00;2048.00;;;;;;4937084;29;20030;-79
2021/08/02 07:51:36;;;;;;;6.53;3.40;;;614.90;2048.00;;;;;;4936786;28;20035;-78
2021/08/02 07:54:03;;;;;;;4.88;3.13;;;614.90;2048.00;;;;;;4937255;29;20043;-77
2021/08/02 07:56:29;;;;;;;4.80;2.78;;;615.20;2022.40;;;;;;4954236;28;20099;-77
2021/08/02 07:58:56;;;;;;;7.53;3.30;;;615.20;1996.80;;;;;;4954354;29;20019;-77
2021/08/02 08:01:22;;;;;;;8.75;2.78;;;615.20;2048.00;;;;;;4954332;29;20065;-78
2021/08/02 08:03:47;;;;;;;6.28;2.60;;;615.20;2048.00;;;;;;4954408;28;20470;-77
2021/08/02 08:06:13;;;;;;;5.25;2.60;;;615.00;1996.80;;;;;;4954369;28;20035;-77
2021/08/02 08:08:39;;;;;;;4.18;2.45;;;615.20;2022.40;;;;;;4937251;29;20029;-77
2021/08/02 08:11:06;;;;;;;7.10;2.80;;;640.00;1971.20;;;;;;4954242;28;20465;-77
2021/08/02 08:13:32;;;;;;;6.13;2.58;;;640.40;1971.20;;;;;;4954110;28;20035;-76
2021/08/02 08:15:58;;;;;;;4.65;2.53;;;640.70;1894.40;;;;;;4954238;28;20458;-77
2021/08/02 08:18:23;;;;;;;3.95;2.30;;;640.70;1868.80;;;;;;4954086;28;20556;-79
2021/08/02 08:20:49;;;;;;;11.30;2.90;;;640.50;1843.20;;;;;;4937129;29;20038;-76
2021/08/02 08:23:15;;;;;;;4.38;2.38;;;640.80;1843.20;;;;;;4954091;28;20026;-76
2021/08/02 08:25:42;;;;;;;5.50;2.25;;;640.80;1843.20;;;;;;4954142;28;20393;-79
2021/08/02 08:28:09;;;;;;;5.00;2.85;;;640.90;1843.20;;;;;;4936536;28;20038;-76
2021/08/02 08:30:35;;;;;;;6.75;2.63;;;640.90;1843.20;;;;;;4937081;29;20485;-75
2021/08/02 08:33:01;;;;;;;6.18;3.00;;;665.90;1868.80;;;;;;4937057;28;20046;-78
2021/08/02 08:35:27;;;;;;;6.15;2.40;;;665.70;1868.80;;;;;;4954116;29;20098;-76
2021/08/02 08:37:52;;;;;;;5.10;2.60;;;665.60;1868.80;;;;;;4954005;28;20034;-77
2021/08/02 08:40:19;;;;;;;5.07;2.80;;;665.60;1894.40;;;;;;4953766;28;20498;-76
2021/08/02 08:42:47;;;;;;;7.03;2.78;;;640.90;1843.20;;;;;;4935579;29;20028;-76
2021/08/02 08:45:13;;;;;;;8.40;2.85;;;665.70;1894.40;;;;;;4951379;29;20023;-80
2021/08/02 08:47:38;;;;;;;4.00;2.83;;;666.00;1868.80;;;;;;4939053;29;20027;-78
2021/08/02 08:50:08;;;;;;;8.40;2.60;;;666.20;1894.40;;;;;;4957440;29;20054;-76
2021/08/02 08:52:36;;;;;;;4.72;2.50;;;666.30;1817.60;;;;;;4937781;29;20020;-76
2021/08/02 08:55:08;;;;;;;7.18;2.83;;;666.20;1792.00;;;;;;4957315;29;20030;-77
2021/08/02 08:57:34;;;;;;;5.03;2.75;;;665.90;1843.20;;;;;;4954863;29;20493;-75
2021/08/02 09:00:00;;;;;;;4.45;2.22;;;666.00;1817.60;;;;;;4940015;29;20066;-75
2021/08/02 09:02:28;;;;;;;7.32;2.85;;;666.20;1817.60;;;;;;4940164;29;20054;-78
2021/08/02 09:04:59;;;;;;;4.28;2.47;;;666.30;1792.00;;;;;;4957204;29;20050;-75
2021/08/02 09:07:33;;;;;;;5.72;2.38;;;666.50;1766.40;;;;;;4956971;29;20029;-75
2021/08/02 09:09:59;;;;;;;6.47;2.45;;;666.50;1792.00;;;;;;4954555;29;20037;-75
2021/08/02 09:12:25;;;;;;;4.20;2.40;;;666.50;1792.00;;;;;;4957010;29;20520;-78
2021/08/02 09:15:05;;;;;;;5.07;2.58;;;691.20;1817.60;;;;;;4956986;29;20122;-80
2021/08/02 09:17:38;;;;;;;5.63;2.30;;;691.20;1792.00;;;;;;4956818;28;20078;-74
2021/08/02 09:20:21;;;;;;;7.18;2.70;;;691.20;1766.40;;;;;;4954999;29;20038;-80
2021/08/02 09:22:48;;;;;;;3.45;2.20;;;666.50;1792.00;;;;;;4955484;29;20488;-76
2021/08/02 09:25:16;;;;;;;4.30;2.75;;;666.40;1766.40;;;;;;4956890;28;20027;-76
2021/08/02 09:27:43;;;;;;;4.20;2.42;;;666.30;1766.40;;;;;;4956816;28;20019;-81
2021/08/02 09:30:16;;;;;;;6.05;2.47;;;666.50;1766.40;;;;;;4956977;28;20047;-76
2021/08/02 09:32:55;;;;;;;7.40;2.50;;;666.40;1740.80;;;;;;4956749;28;20027;-76
2021/08/02 09:35:38;;;;;;;3.80;3.15;;;666.50;1766.40;;;;;;4939525;28;20086;-77
2021/08/02 09:38:08;;;;;;;7.63;2.58;;;666.30;1766.40;;;;;;4956716;28;20473;-76
2021/08/02 09:40:45;;;;;;;5.15;2.65;;;666.20;1740.80;;;;;;4956645;28;20031;-76
2021/08/02 09:43:17;;;;;;;5.57;2.58;;;666.30;1740.80;;;;;;4956757;28;20031;-81
2021/08/02 09:45:52;;;;;;;7.78;2.75;;;666.30;1766.40;;;;;;4956237;28;20460;-76
2021/08/02 09:48:19;;;;;;;5.75;2.75;;;691.20;1766.40;;;;;;4954395;29;20034;-75
2021/08/02 09:50:47;;;;;;;5.15;2.67;;;666.20;1766.40;;;;;;4956257;29;20028;-75
2021/08/02 09:53:16;;;;;;;3.60;2.28;;;666.40;1766.40;;;;;;4956190;29;20493;-75
2021/08/02 09:55:44;;;;;;;5.55;2.83;;;666.30;1766.40;;;;;;4956023;29;20027;-76
2021/08/02 09:58:12;;;;;;;4.75;3.00;;;666.50;1766.40;;;;;;4956054;28;20103;-74
2021/08/02 10:00:39;;;;;;;7.30;2.60;;;666.50;1740.80;;;;;;4956177;29;20059;-76
2021/08/02 10:03:05;;;;;;;5.50;2.97;;;691.30;1715.20;;;;;;4956040;29;20054;-75
2021/08/02 10:05:31;;;;;;;3.53;2.35;;;691.30;1766.40;;;;;;4956121;29;20090;-79
2021/08/02 10:07:58;;;;;;;5.72;2.38;;;691.30;1740.80;;;;;;4956082;28;20019;-76
2021/08/02 10:10:24;;;;;;;4.43;2.72;;;691.40;1715.20;;;;;;4956192;28;20103;-77
2021/08/02 10:12:50;;;;;;;5.40;3.15;;;691.80;1689.60;;;;;;4955993;28;20106;-76
2021/08/02 10:15:30;;;;;;;6.47;3.10;;;692.10;1638.40;;;;;;4956060;28;20023;-81
2021/08/02 10:18:02;;;;;;;6.18;2.40;;;717.10;1638.40;;;;;;4955717;28;20441;-75
2021/08/02 10:20:29;;;;;;;9.00;3.22;;;716.90;1638.40;;;;;;4930595;29;20028;-75
2021/08/02 10:22:57;;;;;;;6.38;3.00;;;716.80;1612.80;;;;;;4955911;28;20027;-76
2021/08/02 10:25:36;;;;;;;6.68;2.83;;;716.90;1664.00;;;;;;4956007;28;20035;-76
2021/08/02 10:28:06;;;;;;;9.13;3.80;;;716.90;1612.80;;;;;;4955809;28;20023;-80
2021/08/02 10:30:32;;;;;;;4.13;2.97;;;717.00;1612.80;;;;;;4955741;28;20110;-76
2021/08/02 10:32:58;;;;;;;4.28;3.20;;;717.20;1638.40;;;;;;4955648;28;20106;-78
2021/08/02 10:35:44;;;;;;;5.30;3.20;;;717.20;1638.40;;;;;;4955381;28;20043;-75
2021/08/02 10:38:16;;;;;;;8.02;2.88;;;717.20;1612.80;;;;;;4955158;29;20385;-76
2021/08/02 10:40:42;;;;;;;8.70;2.65;;;717.30;1587.20;;;;;;4955447;29;20024;-81
2021/08/02 10:43:08;;;;;;;5.82;2.92;;;717.30;1587.20;;;;;;4955272;29;20027;-81
2021/08/02 10:45:34;;;;;;;4.32;3.05;;;717.30;1612.80;;;;;;4955259;28;20496;-76
2021/08/02 10:48:01;;;;;;;7.57;3.13;;;717.50;1638.40;;;;;;4955384;28;20027;-76
2021/08/02 10:50:33;;;;;;;7.05;2.45;;;717.60;1587.20;;;;;;4955265;28;20038;-76
2021/08/02 10:53:14;;;;;;;3.97;2.63;;;717.50;1587.20;;;;;;4955491;28;20055;-82
2021/08/02 10:55:49;;;;;;;5.88;2.50;;;717.40;1561.60;;;;;;4952111;28;20045;-77
2021/08/02 10:58:32;;;;;;;3.67;2.30;;;717.40;1612.80;;;;;;4955550;28;20020;-79
2021/08/02 11:01:03;;;;;;;3.92;2.67;;;742.50;1587.20;;;;;;4954998;29;20027;-79
2021/08/02 11:03:40;;;;;;;4.97;2.40;;;742.80;1561.60;;;;;;4938113;29;20035;-78
2021/08/02 11:06:19;;;;;;;4.50;2.95;;;768.40;1459.20;;;;;;4937770;29;20024;-80
2021/08/02 11:08:51;;;;;;;4.93;2.47;;;793.90;1510.40;;;;;;4954397;28;20058;-77
2021/08/02 11:11:24;;;;;;;4.68;3.03;;;794.50;1459.20;;;;;;4954628;28;20027;-78
2021/08/02 11:13:51;;;;;;;3.42;2.13;;;819.50;1305.60;;;;;;4955001;28;20074;-84
2021/08/02 11:16:18;;;;;;;3.95;1.85;;;819.60;1305.60;;;;;;4955036;28;20019;-77
2021/08/02 11:18:45;;;;;;;4.53;2.13;;;819.50;1305.60;;;;;;4953523;28;20085;-79
2021/08/02 11:21:22;;;;;;;4.20;2.20;;;820.10;1356.80;;;;;;4937758;29;20023;-79
2021/08/02 11:23:48;;;;;;;7.28;2.63;;;819.50;1331.20;;;;;;4954827;28;20078;-83
2021/08/02 11:26:14;;;;;;;4.30;2.30;;;819.60;1331.20;;;;;;4937562;29;20026;-77
2021/08/02 11:28:46;;;;;;;4.30;2.80;;;819.60;1382.40;;;;;;4937553;29;20382;-84
2021/08/02 11:31:13;;;;;;;3.33;2.08;;;819.80;1356.80;;;;;;4954960;29;20023;-77
2021/08/02 11:33:41;;;;;;;6.05;2.40;;;820.10;1356.80;;;;;;4954816;28;20031;-83
2021/08/02 11:36:21;;;;;;;5.35;2.50;;;845.00;1356.80;;;;;;4955073;29;20023;-77
2021/08/02 11:38:49;;;;;;;4.00;2.42;;;845.00;1331.20;;;;;;4954882;28;20027;-80
2021/08/02 11:41:29;;;;;;;3.90;2.30;;;844.80;1331.20;;;;;;4953709;29;20027;-80
2021/08/02 11:43:58;;;;;;;3.50;2.45;;;845.00;1305.60;;;;;;4954626;28;20098;-80
2021/08/02 11:46:24;;;;;;;9.00;2.58;;;844.90;1305.60;;;;;;4954700;28;20027;-81
2021/08/02 11:48:50;;;;;;;6.43;2.90;;;820.00;1280.00;;;;;;4953156;28;20070;-81
2021/08/02 11:51:17;;;;;;;5.20;2.00;;;819.90;1382.40;;;;;;4954356;28;20035;-76
2021/08/02 11:53:43;;;;;;;4.30;2.15;;;819.80;1331.20;;;;;;4954065;29;20493;-78
2021/08/02 11:56:10;;;;;;;5.43;2.50;;;819.70;1408.00;;;;;;4937436;29;20090;-77
2021/08/02 11:58:47;;;;;;;3.83;2.30;;;819.60;1382.40;;;;;;4937101;29;20023;-81
2021/08/02 12:01:13;;;;;;;5.00;2.47;;;819.70;1331.20;;;;;;4954474;28;20027;-77
2021/08/02 12:03:45;;;;;;;6.78;2.88;;;819.50;1382.40;;;;;;4954209;28;20505;-77
2021/08/02 12:06:11;;;;;;;7.38;2.70;;;819.70;1356.80;;;;;;4954441;28;20126;-78
2021/08/02 12:08:48;;;;;;;6.13;2.20;;;819.80;1356.80;;;;;;4954352;28;20385;-79
2021/08/02 12:11:14;;;;;;;4.35;2.67;;;819.80;1408.00;;;;;;4954312;28;20042;-77
2021/08/02 12:13:42;;;;;;;3.97;2.47;;;820.00;1356.80;;;;;;4954115;28;20490;-80
2021/08/02 12:16:12;;;;;;;4.13;2.30;;;819.80;1382.40;;;;;;4954289;28;20023;-81
2021/08/02 12:18:40;;;;;;;3.67;2.80;;;819.60;1382.40;;;;;;4954060;28;20406;-82
2021/08/02 12:21:22;;;;;;;9.25;2.75;;;820.00;1382.40;;;;;;4954436;28;20016;-77
2021/08/02 12:23:48;;;;;;;4.70;2.00;;;819.80;1408.00;;;;;;4940822;28;20421;-77